Time;durP1;ratioP1;P1;durP2;ratioP2;P2;SDS_P1;SDS_P2;PMS_P1;PMS_P2;Temp;Humidity;BMP_temperature;BMP_pressure;BME280_temperature;BME280_humidity;BME280_pressure;Samples;Min_cycle;Max_cycle;Signal;HPM_P1;HPM_P2
2023/10/08 00:00:49;;;;;;;10.77;6.05;;;19.30;98.90;;;;;;10486642;28;20421;-62
2023/10/08 00:05:50;;;;;;;11.80;6.50;;;19.30;98.90;;;;;;10492295;28;20415;-65
2023/10/08 00:10:51;;;;;;;12.70;6.30;;;19.30;99.00;;;;;;10490699;28;20395;-66
2023/10/08 00:15:57;;;;;;;9.10;6.10;;;19.20;99.00;;;;;;10492689;28;20396;-65
2023/10/08 00:21:15;;;;;;;12.45;6.55;;;19.20;99.00;;;;;;10495251;28;20408;-65
2023/10/08 00:26:18;;;;;;;11.23;7.43;;;19.20;99.00;;;;;;10490720;28;20479;-66
2023/10/08 00:31:19;;;;;;;9.93;5.85;;;19.20;99.00;;;;;;10484507;28;20752;-63
2023/10/08 00:36:20;;;;;;;9.00;5.28;;;19.20;99.00;;;;;;10497671;28;20409;-65
2023/10/08 00:41:27;;;;;;;9.30;5.50;;;19.20;99.10;;;;;;10491089;28;20833;-65
2023/10/08 00:46:35;;;;;;;7.88;5.15;;;19.20;99.10;;;;;;10487601;28;20402;-65
2023/10/08 00:51:40;;;;;;;10.73;6.00;;;19.10;99.00;;;;;;10490718;28;20426;-65
2023/10/08 00:56:57;;;;;;;9.18;5.07;;;19.10;99.10;;;;;;10492385;28;20399;-65
2023/10/08 01:02:06;;;;;;;7.38;4.30;;;19.10;99.00;;;;;;10489622;28;20488;-64
2023/10/08 01:07:12;;;;;;;7.45;4.55;;;19.10;98.80;;;;;;10494560;28;20433;-65
2023/10/08 01:12:27;;;;;;;7.37;4.70;;;19.00;98.80;;;;;;10491900;28;20532;-65
2023/10/08 01:17:32;;;;;;;7.10;4.20;;;19.00;98.70;;;;;;10492068;28;20400;-65
2023/10/08 01:22:33;;;;;;;5.80;3.92;;;19.00;98.60;;;;;;10482548;28;21073;-65
2023/10/08 01:27:37;;;;;;;5.53;3.63;;;19.00;98.50;;;;;;10493316;28;20449;-65
2023/10/08 01:32:38;;;;;;;5.60;3.72;;;19.00;98.40;;;;;;10497039;28;20400;-66
2023/10/08 01:37:40;;;;;;;4.87;3.20;;;18.90;98.30;;;;;;10492986;28;20417;-65
2023/10/08 01:42:40;;;;;;;4.35;3.00;;;18.90;98.30;;;;;;10495057;28;20397;-66
2023/10/08 01:47:43;;;;;;;5.28;3.20;;;18.90;98.20;;;;;;10494319;28;20425;-64
2023/10/08 01:52:46;;;;;;;5.55;2.92;;;18.90;98.20;;;;;;10490913;28;20903;-64
2023/10/08 01:57:48;;;;;;;5.03;3.00;;;18.90;98.20;;;;;;10490118;28;20440;-65
2023/10/08 02:02:50;;;;;;;4.70;3.23;;;18.90;98.10;;;;;;10499105;28;20409;-64
2023/10/08 02:07:51;;;;;;;4.10;2.67;;;18.80;98.10;;;;;;10497007;28;20403;-65
2023/10/08 02:12:51;;;;;;;4.50;2.60;;;18.80;98.10;;;;;;10496129;28;20396;-64
2023/10/08 02:17:52;;;;;;;4.38;2.65;;;18.80;98.00;;;;;;10497804;28;20404;-65
2023/10/08 02:22:53;;;;;;;4.35;2.72;;;18.80;98.00;;;;;;10479158;28;20410;-66
2023/10/08 02:27:54;;;;;;;3.53;2.53;;;18.80;98.00;;;;;;10484971;28;20399;-65
2023/10/08 02:32:55;;;;;;;3.03;2.33;;;18.80;97.90;;;;;;10491610;28;20391;-65
2023/10/08 02:37:56;;;;;;;3.65;2.50;;;18.70;97.90;;;;;;10497163;28;20822;-66
2023/10/08 02:43:00;;;;;;;3.20;2.15;;;18.70;97.90;;;;;;10502404;28;20453;-63
2023/10/08 02:48:01;;;;;;;3.10;2.20;;;18.70;97.80;;;;;;10497478;28;20400;-65
2023/10/08 02:53:10;;;;;;;2.30;1.80;;;18.70;97.80;;;;;;10499825;28;20399;-65
2023/10/08 02:58:13;;;;;;;3.28;1.90;;;18.70;97.80;;;;;;10495944;28;20393;-64
2023/10/08 03:03:15;;;;;;;2.85;2.00;;;18.70;97.80;;;;;;10498814;28;20485;-64
2023/10/08 03:08:23;;;;;;;2.20;1.70;;;18.70;97.70;;;;;;10500034;28;20400;-65
2023/10/08 03:13:26;;;;;;;3.15;1.90;;;18.60;97.70;;;;;;10500978;28;20876;-65
2023/10/08 03:18:36;;;;;;;2.05;1.60;;;18.60;97.60;;;;;;10494697;28;20479;-64
2023/10/08 03:23:43;;;;;;;1.77;1.40;;;18.60;97.60;;;;;;10497812;28;20482;-65
2023/10/08 03:28:44;;;;;;;3.05;1.70;;;18.60;97.60;;;;;;10498760;28;20481;-66
2023/10/08 03:33:49;;;;;;;1.98;1.60;;;18.60;97.60;;;;;;10501563;28;20397;-65
2023/10/08 03:38:52;;;;;;;2.20;1.42;;;18.60;97.50;;;;;;10494912;28;20411;-64
2023/10/08 03:43:58;;;;;;;2.17;1.60;;;18.50;97.50;;;;;;10499261;28;20457;-65
2023/10/08 03:49:04;;;;;;;1.77;1.40;;;18.50;97.50;;;;;;10503629;28;20738;-65
2023/10/08 03:59:31;;;;;;;1.57;1.40;;;18.50;97.50;;;;;;10501975;28;20395;-65
2023/10/08 04:04:48;;;;;;;1.85;1.20;;;18.50;97.50;;;;;;10506874;28;20401;-64
2023/10/08 04:09:52;;;;;;;2.30;1.50;;;18.50;97.50;;;;;;10492574;28;20415;-65
2023/10/08 04:14:55;;;;;;;1.67;1.23;;;18.50;97.40;;;;;;10499428;28;20428;-65
2023/10/08 04:19:58;;;;;;;1.92;1.13;;;18.40;97.40;;;;;;10494715;28;20400;-65
2023/10/08 04:25:02;;;;;;;1.75;1.15;;;18.50;97.40;;;;;;10495536;28;20392;-64
2023/10/08 04:30:03;;;;;;;1.40;1.10;;;18.40;97.70;;;;;;10496589;28;20407;-65
2023/10/08 04:35:07;;;;;;;2.27;1.37;;;18.40;97.40;;;;;;10496103;28;20417;-64
2023/10/08 04:40:16;;;;;;;1.63;1.15;;;18.40;97.40;;;;;;10496199;28;20494;-64
2023/10/08 04:45:19;;;;;;;1.52;1.00;;;18.40;97.40;;;;;;10493833;28;20391;-64
2023/10/08 04:50:21;;;;;;;1.55;1.10;;;18.40;97.40;;;;;;10502985;28;20849;-65
2023/10/08 04:55:28;;;;;;;1.70;1.08;;;18.40;97.40;;;;;;10503549;28;20398;-66
2023/10/08 05:00:44;;;;;;;1.60;1.10;;;18.30;97.40;;;;;;10497438;28;20801;-65
2023/10/08 05:05:55;;;;;;;1.77;1.17;;;18.30;97.40;;;;;;10502905;28;20395;-65
2023/10/08 05:11:15;;;;;;;1.60;0.93;;;18.30;97.30;;;;;;10500732;28;20495;-65
2023/10/08 05:21:51;;;;;;;1.70;1.20;;;18.50;97.40;;;;;;10492908;28;20453;-65
2023/10/08 05:27:08;;;;;;;1.50;1.00;;;18.30;97.30;;;;;;10498006;28;20531;-65
2023/10/08 05:32:37;;;;;;;1.13;0.90;;;18.20;97.30;;;;;;10489389;28;20414;-65
2023/10/08 05:37:42;;;;;;;2.53;1.00;;;18.30;97.30;;;;;;10496042;28;20410;-64
2023/10/08 05:42:46;;;;;;;1.48;0.90;;;18.30;97.30;;;;;;10498637;28;20444;-65
2023/10/08 05:48:12;;;;;;;1.10;0.93;;;18.20;97.30;;;;;;10493038;28;21085;-66
2023/10/08 05:53:29;;;;;;;1.75;1.10;;;18.20;97.30;;;;;;10493137;28;20789;-65
2023/10/08 05:58:45;;;;;;;1.10;0.82;;;18.20;97.30;;;;;;10492490;28;20414;-63
2023/10/08 06:04:00;;;;;;;1.40;0.98;;;18.20;97.30;;;;;;10470070;28;20714;-65
2023/10/08 06:09:21;;;;;;;1.60;1.10;;;18.20;97.30;;;;;;10485923;28;20400;-65
2023/10/08 06:19:43;;;;;;;2.28;0.95;;;18.10;97.30;;;;;;10483675;28;20781;-65
2023/10/08 06:24:43;;;;;;;1.50;0.90;;;18.10;97.30;;;;;;10488408;28;20399;-66
2023/10/08 06:29:44;;;;;;;1.40;0.90;;;18.10;97.30;;;;;;10495245;28;20398;-64
2023/10/08 06:34:45;;;;;;;1.40;0.90;;;18.10;97.30;;;;;;10495072;28;20417;-65
2023/10/08 06:39:48;;;;;;;1.93;0.90;;;18.10;97.30;;;;;;10489793;28;20420;-64
2023/10/08 06:44:49;;;;;;;1.67;0.90;;;18.10;97.30;;;;;;10495988;28;20405;-65
2023/10/08 06:49:51;;;;;;;1.40;0.90;;;18.10;97.30;;;;;;10491324;28;20416;-65
2023/10/08 06:54:53;;;;;;;2.53;0.73;;;18.10;97.30;;;;;;10496244;28;20409;-65
2023/10/08 06:59:53;;;;;;;1.50;1.00;;;18.10;97.30;;;;;;10505889;28;20459;-65
2023/10/08 07:04:54;;;;;;;1.60;0.90;;;18.10;97.30;;;;;;10498667;28;20916;-64
2023/10/08 07:09:56;;;;;;;1.20;1.00;;;18.10;97.30;;;;;;10497124;28;20774;-65
2023/10/08 07:14:58;;;;;;;1.55;0.95;;;18.00;97.30;;;;;;10492287;28;20402;-64
2023/10/08 07:19:59;;;;;;;2.67;1.30;;;18.10;97.30;;;;;;10492236;28;20748;-65
2023/10/08 07:24:59;;;;;;;2.07;0.90;;;18.00;97.30;;;;;;10502521;28;20393;-66
2023/10/08 07:30:02;;;;;;;1.10;0.90;;;18.00;97.30;;;;;;10485092;28;20401;-65
2023/10/08 07:35:23;;;;;;;1.73;0.97;;;18.10;97.30;;;;;;10493777;28;20427;-65
2023/10/08 07:40:29;;;;;;;1.30;0.95;;;18.10;97.30;;;;;;10503064;28;20989;-64
2023/10/08 07:45:35;;;;;;;1.87;0.93;;;18.00;97.20;;;;;;10494141;28;20522;-65
2023/10/08 07:50:41;;;;;;;1.60;0.88;;;18.00;97.20;;;;;;10521237;28;21145;-65
2023/10/08 07:55:43;;;;;;;1.30;0.75;;;18.00;97.20;;;;;;10520937;28;20481;-65
2023/10/08 08:00:54;;;;;;;1.70;0.93;;;18.00;97.20;;;;;;10517968;28;20405;-68
2023/10/08 08:05:54;;;;;;;3.37;1.00;;;18.00;97.20;;;;;;10503252;28;20921;-67
2023/10/08 08:10:58;;;;;;;2.58;1.08;;;18.00;97.20;;;;;;10500281;28;20434;-69
2023/10/08 08:16:09;;;;;;;2.72;1.15;;;18.00;97.20;;;;;;10506629;28;20398;-65
2023/10/08 08:21:15;;;;;;;1.70;1.20;;;18.00;97.20;;;;;;10480811;28;20832;-66
2023/10/08 08:26:32;;;;;;;2.95;1.17;;;18.10;97.20;;;;;;10485358;28;20431;-66
2023/10/08 08:31:35;;;;;;;2.33;1.10;;;18.10;97.10;;;;;;10491955;28;20408;-65
2023/10/08 08:36:39;;;;;;;2.13;1.00;;;18.10;97.10;;;;;;10490662;28;20872;-66
2023/10/08 08:41:39;;;;;;;2.73;1.00;;;18.10;97.10;;;;;;10491440;28;20414;-65
2023/10/08 08:46:40;;;;;;;2.05;1.13;;;18.10;97.00;;;;;;10494373;28;20755;-65
2023/10/08 08:51:42;;;;;;;3.10;1.17;;;18.10;97.00;;;;;;10495535;28;20405;-65
2023/10/08 08:56:44;;;;;;;2.17;1.20;;;18.10;96.90;;;;;;10491928;28;20489;-66
2023/10/08 09:01:45;;;;;;;2.30;1.17;;;18.10;96.90;;;;;;10487545;28;20912;-65
2023/10/08 09:06:46;;;;;;;2.42;1.15;;;18.10;96.80;;;;;;10486084;28;20411;-65
2023/10/08 09:11:47;;;;;;;3.17;1.10;;;18.10;96.80;;;;;;10484203;28;20482;-64
2023/10/08 09:16:48;;;;;;;2.40;1.20;;;18.10;96.80;;;;;;10484182;28;20399;-65
2023/10/08 09:22:08;;;;;;;3.53;1.63;;;18.10;96.70;;;;;;10485595;28;20447;-65
2023/10/08 09:27:19;;;;;;;1.73;1.08;;;18.20;96.70;;;;;;10475600;28;21123;-65
2023/10/08 09:32:23;;;;;;;1.60;1.03;;;18.20;96.70;;;;;;10490668;28;20925;-64
2023/10/08 09:37:24;;;;;;;4.10;1.30;;;18.20;96.70;;;;;;10494942;28;20419;-65
2023/10/08 09:42:25;;;;;;;2.25;1.20;;;18.20;96.60;;;;;;10490676;28;20417;-65
2023/10/08 09:47:29;;;;;;;1.73;1.00;;;18.20;96.60;;;;;;10483750;28;20412;-65
2023/10/08 09:52:38;;;;;;;1.77;1.20;;;18.20;96.60;;;;;;10498399;28;20411;-66
2023/10/08 09:57:41;;;;;;;2.53;1.23;;;18.10;96.50;;;;;;10486530;28;21548;-65
2023/10/08 10:02:43;;;;;;;2.63;1.30;;;18.30;96.60;;;;;;10493739;28;20508;-67
2023/10/08 10:07:47;;;;;;;3.35;1.38;;;18.20;96.60;;;;;;10493412;28;20407;-68
2023/10/08 10:12:48;;;;;;;2.43;1.27;;;18.20;96.60;;;;;;10487871;28;20435;-68
2023/10/08 10:17:49;;;;;;;2.42;1.20;;;18.30;96.50;;;;;;10488358;28;20418;-67
2023/10/08 10:22:49;;;;;;;3.10;1.30;;;18.40;96.30;;;;;;10489923;28;20406;-68
2023/10/08 10:27:51;;;;;;;4.10;1.37;;;18.40;96.30;;;;;;10493510;28;20395;-67
2023/10/08 10:32:52;;;;;;;2.73;1.10;;;18.50;96.30;;;;;;10493372;28;20467;-66
2023/10/08 10:37:54;;;;;;;2.25;1.20;;;18.50;96.20;;;;;;10477500;28;20472;-67
2023/10/08 10:43:01;;;;;;;6.03;1.20;;;18.50;96.10;;;;;;10485179;28;20909;-70
2023/10/08 10:53:22;;;;;;;5.38;1.05;;;18.00;94.40;;;;;;10486962;28;20411;-67
2023/10/08 10:58:24;;;;;;;4.63;1.10;;;18.00;94.80;;;;;;10480016;28;20423;-65
2023/10/08 11:03:25;;;;;;;3.30;0.98;;;18.10;95.00;;;;;;10493426;28;20407;-65
2023/10/08 11:08:34;;;;;;;4.57;1.03;;;18.20;95.10;;;;;;10493737;28;20409;-72
2023/10/08 11:13:38;;;;;;;4.00;1.30;;;18.20;95.10;;;;;;10503592;28;20412;-64
2023/10/08 11:18:57;;;;;;;2.88;0.85;;;18.20;95.10;;;;;;10492075;28;20478;-66
2023/10/08 11:24:08;;;;;;;3.55;0.90;;;18.30;95.40;;;;;;10498331;28;20913;-65
2023/10/08 11:29:14;;;;;;;2.65;1.08;;;18.30;95.10;;;;;;10500109;28;20877;-67
2023/10/08 11:34:19;;;;;;;2.95;0.90;;;18.40;95.10;;;;;;10502708;28;20887;-66
2023/10/08 11:39:23;;;;;;;3.60;1.20;;;18.40;95.00;;;;;;10501229;28;20419;-65
2023/10/08 11:44:30;;;;;;;3.57;1.10;;;18.50;95.10;;;;;;10504867;28;20399;-66
2023/10/08 11:49:36;;;;;;;3.37;1.27;;;18.50;95.10;;;;;;10500470;28;20980;-68
2023/10/08 11:54:36;;;;;;;4.60;1.20;;;18.50;95.00;;;;;;10500379;28;20447;-66
2023/10/08 11:59:41;;;;;;;3.17;1.00;;;18.50;95.00;;;;;;10498548;28;20390;-66
2023/10/08 12:04:41;;;;;;;3.70;1.00;;;18.60;94.90;;;;;;10500779;28;20405;-66
2023/10/08 12:09:42;;;;;;;2.70;0.97;;;18.60;94.80;;;;;;10495143;28;20407;-66
2023/10/08 12:14:52;;;;;;;3.80;1.37;;;18.70;94.80;;;;;;10493528;28;21376;-67
2023/10/08 12:19:55;;;;;;;4.57;1.30;;;18.70;94.70;;;;;;10496502;28;20495;-68
2023/10/08 12:24:56;;;;;;;3.15;1.00;;;18.70;94.80;;;;;;10492138;28;20457;-64
2023/10/08 12:29:58;;;;;;;3.00;1.10;;;18.80;94.70;;;;;;10485311;28;21054;-65
2023/10/08 12:35:00;;;;;;;3.83;0.90;;;18.80;94.50;;;;;;10503683;28;20414;-66
2023/10/08 12:40:11;;;;;;;3.73;1.03;;;18.80;94.40;;;;;;10486673;28;20403;-66
2023/10/08 12:45:12;;;;;;;2.63;1.00;;;18.80;94.40;;;;;;10498166;28;20399;-64
2023/10/08 12:50:15;;;;;;;2.77;1.03;;;18.80;94.50;;;;;;10486929;28;20444;-66
2023/10/08 12:55:16;;;;;;;2.35;0.90;;;18.80;94.50;;;;;;10497929;28;20811;-65
2023/10/08 13:00:17;;;;;;;3.00;1.00;;;18.80;94.60;;;;;;10503680;28;20822;-66
2023/10/08 13:05:21;;;;;;;4.22;1.00;;;18.80;94.60;;;;;;10493131;28;20404;-66
2023/10/08 13:10:23;;;;;;;2.33;0.90;;;18.80;94.40;;;;;;10494848;28;20404;-66
2023/10/08 13:15:25;;;;;;;3.45;1.00;;;18.80;94.00;;;;;;10497657;28;20864;-66
2023/10/08 13:20:26;;;;;;;3.40;1.13;;;18.80;94.10;;;;;;10482966;28;20412;-66
2023/10/08 13:25:27;;;;;;;2.80;1.20;;;18.80;94.10;;;;;;10490945;28;20458;-66
2023/10/08 13:30:27;;;;;;;2.57;0.93;;;18.80;94.00;;;;;;10487926;28;20395;-66
2023/10/08 13:35:28;;;;;;;2.53;1.10;;;18.80;94.10;;;;;;10497777;28;20553;-67
2023/10/08 13:40:32;;;;;;;3.17;1.10;;;18.80;94.00;;;;;;10494785;28;20452;-66
2023/10/08 13:45:37;;;;;;;3.43;1.10;;;18.80;94.10;;;;;;10490558;28;20407;-65
2023/10/08 13:50:37;;;;;;;2.27;1.00;;;18.80;94.10;;;;;;10487935;28;20420;-66
2023/10/08 13:55:38;;;;;;;3.20;1.10;;;18.80;94.10;;;;;;10494404;28;20825;-66
2023/10/08 14:00:39;;;;;;;2.38;1.00;;;18.80;94.10;;;;;;10496192;28;20405;-66
2023/10/08 14:05:39;;;;;;;2.33;1.20;;;18.90;94.10;;;;;;10484847;28;20582;-65
2023/10/08 14:10:43;;;;;;;2.67;1.20;;;18.80;94.10;;;;;;10493977;28;20393;-66
2023/10/08 14:15:47;;;;;;;2.75;1.23;;;18.80;94.00;;;;;;10499889;28;20434;-66
2023/10/08 14:20:53;;;;;;;2.90;1.23;;;18.90;93.70;;;;;;10490437;28;20402;-66
2023/10/08 14:26:03;;;;;;;4.27;1.60;;;18.90;93.70;;;;;;10493204;28;20404;-66
2023/10/08 14:31:03;;;;;;;2.87;1.30;;;18.90;93.90;;;;;;10490392;28;20395;-68
2023/10/08 14:47:00;;;;;;;2.88;1.20;;;18.80;93.90;;;;;;10399994;28;20405;-71
2023/10/08 14:52:04;;;;;;;2.37;1.10;;;18.80;93.80;;;;;;10490992;28;20397;-69
2023/10/08 14:57:05;;;;;;;3.53;1.33;;;18.80;94.00;;;;;;10490286;28;20390;-68
2023/10/08 15:02:06;;;;;;;3.57;1.20;;;18.80;93.90;;;;;;10491036;28;20413;-68
2023/10/08 15:07:10;;;;;;;2.00;1.10;;;18.80;94.30;;;;;;10483156;28;20890;-68
2023/10/08 15:12:11;;;;;;;2.37;1.30;;;18.80;94.50;;;;;;10491724;28;20462;-69
2023/10/08 15:17:12;;;;;;;3.35;1.20;;;18.80;94.40;;;;;;10493887;28;20482;-68
2023/10/08 15:22:14;;;;;;;5.10;1.50;;;18.90;94.40;;;;;;10485472;28;20406;-68
2023/10/08 15:27:15;;;;;;;4.70;1.35;;;18.80;94.10;;;;;;10486129;28;20493;-68
2023/10/08 15:32:16;;;;;;;3.65;1.52;;;18.80;93.90;;;;;;10488613;28;20418;-68
2023/10/08 15:37:18;;;;;;;3.88;1.40;;;18.80;93.90;;;;;;10490258;28;20415;-68
2023/10/08 15:42:18;;;;;;;4.43;2.03;;;18.80;94.00;;;;;;10495684;28;21023;-68
2023/10/08 15:47:19;;;;;;;4.17;1.87;;;18.80;94.30;;;;;;10501572;28;20417;-67
2023/10/08 15:52:22;;;;;;;2.53;1.50;;;18.80;94.10;;;;;;10502572;28;20416;-66
2023/10/08 15:57:23;;;;;;;4.78;1.60;;;18.80;94.10;;;;;;10508469;28;20410;-68
2023/10/08 16:02:24;;;;;;;5.23;1.90;;;18.70;94.00;;;;;;10504705;28;20419;-68
2023/10/08 16:07:24;;;;;;;3.80;1.60;;;18.60;94.30;;;;;;10500347;28;20408;-67
2023/10/08 16:12:25;;;;;;;2.83;1.20;;;18.60;94.20;;;;;;10497404;28;20412;-67
2023/10/08 16:17:30;;;;;;;5.95;1.58;;;18.60;94.20;;;;;;10496561;28;20415;-67
2023/10/08 16:22:31;;;;;;;4.70;1.50;;;18.60;94.10;;;;;;10490430;28;20411;-68
2023/10/08 16:27:34;;;;;;;3.60;1.60;;;18.60;94.20;;;;;;10497568;28;20409;-68
2023/10/08 16:32:36;;;;;;;3.70;1.40;;;18.60;94.10;;;;;;10499717;28;20406;-67
2023/10/08 16:37:37;;;;;;;4.53;1.50;;;18.60;94.10;;;;;;10497064;28;20459;-67
2023/10/08 16:42:38;;;;;;;4.60;1.58;;;18.50;94.10;;;;;;10495795;28;20901;-67
2023/10/08 16:47:38;;;;;;;3.97;1.60;;;18.60;94.20;;;;;;10502679;28;20417;-68
2023/10/08 16:52:39;;;;;;;3.70;1.58;;;18.50;94.20;;;;;;10493669;28;20499;-66
2023/10/08 16:57:40;;;;;;;4.07;1.63;;;18.50;94.30;;;;;;10492871;28;20402;-67
2023/10/08 17:02:41;;;;;;;4.25;1.40;;;18.50;94.40;;;;;;10487432;28;20423;-67
2023/10/08 17:07:43;;;;;;;5.28;1.45;;;18.50;94.40;;;;;;10502368;28;20386;-71
2023/10/08 17:12:43;;;;;;;3.17;1.35;;;18.40;94.30;;;;;;10492923;28;20893;-67
2023/10/08 17:17:44;;;;;;;3.80;1.40;;;18.50;94.30;;;;;;10488475;28;20402;-67
2023/10/08 17:22:45;;;;;;;3.10;1.43;;;18.50;94.30;;;;;;10479480;28;20409;-66
2023/10/08 17:27:46;;;;;;;3.60;1.60;;;18.50;94.40;;;;;;10494965;28;20409;-67
2023/10/08 17:32:48;;;;;;;3.13;1.60;;;18.40;94.30;;;;;;10484815;28;20867;-65
2023/10/08 17:37:49;;;;;;;3.90;2.00;;;18.40;94.40;;;;;;10486807;28;20510;-65
2023/10/08 17:42:50;;;;;;;3.20;1.50;;;18.40;94.40;;;;;;10490149;28;20423;-66
2023/10/08 17:47:55;;;;;;;4.30;1.70;;;18.40;94.50;;;;;;10495325;28;20405;-67
2023/10/08 17:52:56;;;;;;;2.72;1.67;;;18.40;94.50;;;;;;10496320;28;20701;-66
2023/10/08 17:57:58;;;;;;;2.85;1.65;;;18.50;94.50;;;;;;10488321;28;20931;-66
2023/10/08 18:02:59;;;;;;;2.70;1.55;;;18.40;94.50;;;;;;10474322;28;20840;-65
2023/10/08 18:08:01;;;;;;;3.10;1.60;;;18.40;94.60;;;;;;10472250;28;20420;-66
2023/10/08 18:13:02;;;;;;;2.60;1.70;;;18.40;94.60;;;;;;10471743;28;20506;-67
2023/10/08 18:18:09;;;;;;;4.43;2.03;;;18.40;94.70;;;;;;10473307;28;20480;-65
2023/10/08 18:23:11;;;;;;;4.97;1.90;;;18.40;94.70;;;;;;10480547;28;20450;-66
2023/10/08 18:28:13;;;;;;;3.25;1.80;;;18.40;94.80;;;;;;10489873;28;20406;-66
2023/10/08 18:33:14;;;;;;;4.45;2.00;;;18.40;94.80;;;;;;10491776;28;20409;-66
2023/10/08 18:38:14;;;;;;;3.05;1.60;;;18.30;94.80;;;;;;10484916;28;20415;-66
2023/10/08 18:43:18;;;;;;;4.33;1.73;;;18.30;94.80;;;;;;10488958;28;20418;-66
2023/10/08 18:48:19;;;;;;;3.78;1.80;;;18.30;94.80;;;;;;10486364;28;20393;-66
2023/10/08 18:53:19;;;;;;;3.00;1.80;;;18.30;94.90;;;;;;10494976;28;20415;-66
2023/10/08 18:58:20;;;;;;;2.80;1.73;;;18.30;94.90;;;;;;10495879;28;20448;-65
2023/10/08 19:03:21;;;;;;;3.85;1.75;;;18.30;95.00;;;;;;10471634;28;20845;-66
2023/10/08 19:08:23;;;;;;;3.85;1.80;;;18.30;95.00;;;;;;10479265;28;20410;-66
2023/10/08 19:13:24;;;;;;;3.27;2.10;;;18.30;95.00;;;;;;10480018;28;20491;-65
2023/10/08 19:18:24;;;;;;;3.20;1.85;;;18.20;95.00;;;;;;10478225;28;20472;-66
2023/10/08 19:23:28;;;;;;;3.65;2.00;;;18.30;95.10;;;;;;10486409;28;20411;-65
2023/10/08 19:28:29;;;;;;;4.40;1.90;;;18.30;95.10;;;;;;10485959;28;20423;-66
2023/10/08 19:33:30;;;;;;;3.80;1.97;;;18.20;95.10;;;;;;10477211;28;20506;-66
2023/10/08 19:38:31;;;;;;;3.53;2.20;;;18.20;95.10;;;;;;10488594;28;21292;-64
2023/10/08 19:43:32;;;;;;;3.40;1.80;;;18.20;95.10;;;;;;10491426;28;20791;-66
2023/10/08 19:48:33;;;;;;;3.53;2.17;;;18.20;95.10;;;;;;10491524;28;20410;-66
2023/10/08 19:53:34;;;;;;;4.40;1.97;;;18.20;95.10;;;;;;10489300;28;20405;-66
2023/10/08 19:58:34;;;;;;;3.38;1.80;;;18.20;95.20;;;;;;10484694;28;20402;-64
2023/10/08 20:03:35;;;;;;;4.73;2.07;;;18.20;95.20;;;;;;10487169;28;20419;-66
2023/10/08 20:08:36;;;;;;;3.03;2.13;;;18.20;95.20;;;;;;10482168;28;20403;-67
2023/10/08 20:13:36;;;;;;;3.53;2.30;;;18.20;95.10;;;;;;10485229;28;20411;-65
2023/10/08 20:18:37;;;;;;;3.45;2.20;;;18.20;95.10;;;;;;10488123;28;20505;-64
2023/10/08 20:23:39;;;;;;;2.90;2.20;;;18.20;95.10;;;;;;10487389;28;20412;-66
2023/10/08 20:28:41;;;;;;;2.63;2.10;;;18.20;95.10;;;;;;10478017;28;20471;-66
2023/10/08 20:33:45;;;;;;;4.18;2.30;;;18.20;95.10;;;;;;10484270;28;20829;-66
2023/10/08 20:38:46;;;;;;;3.42;2.08;;;18.10;95.00;;;;;;10494003;28;20406;-67
2023/10/08 20:43:47;;;;;;;3.95;2.13;;;18.10;95.00;;;;;;10479645;28;20916;-65
2023/10/08 20:48:49;;;;;;;3.83;2.40;;;18.10;95.00;;;;;;10485276;28;20399;-67
2023/10/08 20:53:52;;;;;;;2.58;2.03;;;18.10;95.00;;;;;;10487440;28;20411;-67
2023/10/08 20:58:52;;;;;;;2.78;2.10;;;18.10;95.00;;;;;;10491712;28;20515;-66
2023/10/08 21:03:53;;;;;;;6.13;2.50;;;18.10;95.00;;;;;;10491044;28;20407;-66
2023/10/08 21:08:55;;;;;;;4.90;2.20;;;18.10;94.80;;;;;;10483198;28;20399;-66
2023/10/08 21:13:55;;;;;;;3.15;2.05;;;18.10;94.80;;;;;;10484139;28;20787;-66
2023/10/08 21:18:58;;;;;;;2.80;1.90;;;18.10;94.70;;;;;;10481559;28;20411;-67
2023/10/08 21:23:58;;;;;;;3.33;2.05;;;18.00;94.60;;;;;;10479930;28;20419;-67
2023/10/08 21:28:59;;;;;;;3.15;2.10;;;18.00;94.60;;;;;;10484245;28;20403;-65
2023/10/08 21:34:00;;;;;;;3.30;1.83;;;18.00;94.60;;;;;;10482728;28;20423;-65
2023/10/08 21:39:00;;;;;;;3.77;1.93;;;18.10;94.60;;;;;;10487236;28;20895;-66
2023/10/08 21:44:01;;;;;;;2.03;1.80;;;18.00;94.50;;;;;;10489679;28;20515;-66
2023/10/08 21:49:01;;;;;;;4.07;1.93;;;18.00;94.60;;;;;;10488608;28;20911;-67
2023/10/08 21:54:02;;;;;;;3.00;1.83;;;18.00;94.60;;;;;;10484568;28;20949;-66
2023/10/08 21:59:03;;;;;;;3.75;2.08;;;18.00;94.60;;;;;;10487902;28;20414;-66
2023/10/08 22:04:05;;;;;;;4.70;2.07;;;18.00;94.50;;;;;;10479858;28;20891;-66
2023/10/08 22:09:12;;;;;;;3.97;1.90;;;18.00;94.50;;;;;;10476142;28;20410;-66
2023/10/08 22:14:14;;;;;;;2.75;1.90;;;18.00;94.60;;;;;;10479861;28;20409;-66
2023/10/08 22:19:15;;;;;;;2.72;1.80;;;18.00;94.90;;;;;;10483010;28;20407;-66
2023/10/08 22:24:18;;;;;;;3.22;1.77;;;18.00;94.60;;;;;;10490230;28;20465;-67
2023/10/08 22:29:19;;;;;;;2.92;1.92;;;18.00;94.60;;;;;;10481956;28;20619;-66
2023/10/08 22:34:28;;;;;;;2.60;1.60;;;17.90;94.60;;;;;;10486111;28;20514;-66
2023/10/08 22:39:29;;;;;;;4.28;1.90;;;17.90;94.70;;;;;;10484249;28;20443;-66
2023/10/08 22:44:29;;;;;;;3.63;1.90;;;17.90;94.70;;;;;;10490449;28;20506;-65
2023/10/08 22:49:31;;;;;;;2.78;1.65;;;17.90;94.70;;;;;;10484349;28;20403;-66
2023/10/08 22:54:33;;;;;;;3.13;1.88;;;17.90;94.70;;;;;;10489053;28;20829;-64
2023/10/08 22:59:35;;;;;;;4.35;1.70;;;17.90;94.70;;;;;;10499461;28;20397;-67
2023/10/08 23:04:36;;;;;;;3.78;1.98;;;17.90;94.70;;;;;;10499072;28;20442;-66
2023/10/08 23:09:37;;;;;;;3.47;1.70;;;17.90;94.70;;;;;;10499442;28;20404;-66
2023/10/08 23:14:38;;;;;;;3.70;1.67;;;17.80;94.70;;;;;;10495720;28;20781;-66
2023/10/08 23:19:39;;;;;;;3.03;1.60;;;17.80;94.70;;;;;;10491472;28;20404;-67
2023/10/08 23:24:42;;;;;;;4.13;1.90;;;17.80;94.70;;;;;;10488173;28;20409;-64
2023/10/08 23:29:43;;;;;;;2.80;1.88;;;17.80;94.70;;;;;;10489576;28;20398;-66
2023/10/08 23:34:44;;;;;;;2.85;1.80;;;17.80;94.70;;;;;;10494248;28;20418;-65
2023/10/08 23:39:44;;;;;;;3.13;1.80;;;17.80;94.70;;;;;;10501411;28;20531;-66
2023/10/08 23:44:48;;;;;;;4.13;2.03;;;17.80;94.80;;;;;;10499160;28;21258;-65
2023/10/08 23:49:53;;;;;;;3.03;1.73;;;17.80;94.80;;;;;;10497948;28;20400;-65
2023/10/08 23:54:57;;;;;;;3.33;1.70;;;17.80;94.80;;;;;;10500402;28;20766;-64
2023/10/08 23:59:58;;;;;;;3.90;1.73;;;17.80;94.80;;;;;;10499373;28;20477;-66
